createdAt,value
2023-04-23T00:02:13.993Z,3.90
2023-04-23T00:04:51.863Z,4.00
2023-04-23T00:07:21.400Z,3.10
2023-04-23T00:09:52.720Z,3.40
2023-04-23T00:12:21.114Z,4.00
2023-04-23T00:14:48.472Z,4.93
2023-04-23T00:17:15.463Z,3.37
2023-04-23T00:19:42.283Z,3.50
2023-04-23T00:22:09.186Z,4.00
2023-04-23T00:24:39.073Z,3.47
2023-04-23T00:27:06.649Z,3.90
2023-04-23T00:29:33.593Z,4.27
2023-04-23T00:32:00.707Z,3.87
2023-04-23T00:34:28.298Z,3.47
2023-04-23T00:36:55.581Z,4.00
2023-04-23T00:39:22.584Z,3.47
2023-04-23T00:41:49.506Z,3.40
2023-04-23T00:44:16.374Z,3.93
2023-04-23T00:46:44.014Z,3.40
2023-04-23T00:49:11.483Z,3.97
2023-04-23T00:51:38.402Z,3.90
2023-04-23T00:54:05.654Z,3.43
2023-04-23T00:56:33.504Z,4.03
2023-04-23T00:59:02.737Z,3.70
2023-04-23T01:01:30.368Z,3.33
2023-04-23T01:03:57.983Z,3.63
2023-04-23T01:06:28.776Z,3.83
2023-04-23T01:08:55.974Z,3.80
2023-04-23T01:11:22.948Z,3.33
2023-04-23T01:13:50.480Z,3.10
2023-04-23T01:16:17.626Z,3.50
2023-04-23T01:18:44.636Z,3.40
2023-04-23T01:21:12.405Z,3.70
2023-04-23T01:23:39.617Z,3.60
2023-04-23T01:26:07.286Z,3.70
2023-04-23T01:28:34.628Z,3.27
2023-04-23T01:31:02.520Z,3.83
2023-04-23T01:33:30.617Z,3.97
2023-04-23T01:35:58.470Z,4.33
2023-04-23T01:38:28.574Z,3.93
2023-04-23T01:40:55.346Z,3.87
2023-04-23T01:43:23.398Z,4.20
2023-04-23T01:45:50.406Z,3.90
2023-04-23T01:48:17.564Z,3.93
2023-04-23T01:50:44.381Z,4.27
2023-04-23T01:53:11.322Z,4.10
2023-04-23T01:55:42.525Z,4.00
2023-04-23T01:58:09.473Z,4.37
2023-04-23T02:00:36.980Z,4.40
2023-04-23T02:03:04.012Z,4.67
2023-04-23T02:05:34.473Z,4.50
2023-04-23T02:08:01.604Z,3.73
2023-04-23T02:10:29.644Z,4.17
2023-04-23T02:12:59.402Z,4.30
2023-04-23T02:15:26.320Z,3.83
2023-04-23T02:17:53.434Z,3.40
2023-04-23T02:20:21.774Z,3.60
2023-04-23T02:22:49.558Z,3.93
2023-04-23T02:25:18.059Z,4.00
2023-04-23T02:27:45.432Z,3.83
2023-04-23T02:30:12.463Z,4.23
2023-04-23T02:32:39.884Z,4.23
2023-04-23T02:35:07.988Z,4.77
2023-04-23T02:37:35.098Z,4.40
2023-04-23T02:40:01.988Z,3.93
2023-04-23T02:42:28.816Z,4.00
2023-04-23T02:44:55.605Z,4.20
2023-04-23T02:47:22.475Z,4.00
2023-04-23T02:49:49.328Z,3.73
2023-04-23T02:52:16.437Z,3.80
2023-04-23T02:54:43.501Z,4.00
2023-04-23T02:57:10.632Z,3.60
2023-04-23T02:59:37.447Z,3.80
2023-04-23T03:02:04.573Z,3.67
2023-04-23T03:04:31.547Z,3.60
2023-04-23T03:06:58.582Z,3.70
2023-04-23T03:09:25.437Z,3.70
2023-04-23T03:11:52.240Z,3.20
2023-04-23T03:14:19.073Z,3.67
2023-04-23T03:16:45.924Z,3.63
2023-04-23T03:19:12.804Z,4.40
2023-04-23T03:21:39.602Z,4.23
2023-04-23T03:24:06.662Z,3.60
2023-04-23T03:26:34.673Z,4.27
2023-04-23T03:29:01.554Z,4.43
2023-04-23T03:31:28.373Z,3.83
2023-04-23T03:33:55.170Z,3.83
2023-04-23T03:36:21.938Z,3.60
2023-04-23T03:38:48.756Z,3.80
2023-04-23T03:41:15.581Z,3.80
2023-04-23T03:43:42.420Z,3.97
2023-04-23T03:46:09.226Z,4.17
2023-04-23T03:48:36.162Z,4.23
2023-04-23T03:51:02.932Z,4.13
2023-04-23T03:53:29.788Z,3.60
2023-04-23T03:55:56.754Z,4.00
2023-04-23T03:58:23.604Z,4.20
2023-04-23T04:00:51.126Z,3.50
2023-04-23T04:03:18.119Z,4.20
2023-04-23T04:05:45.076Z,4.07
2023-04-23T04:08:11.939Z,4.00
2023-04-23T04:10:38.777Z,3.93
2023-04-23T04:13:05.584Z,4.20
2023-04-23T04:15:33.154Z,4.10
2023-04-23T04:18:01.266Z,4.30
2023-04-23T04:20:31.218Z,4.10
2023-04-23T04:22:58.116Z,3.80
2023-04-23T04:25:24.965Z,4.13
2023-04-23T04:27:51.806Z,4.70
2023-04-23T04:30:18.786Z,4.63
2023-04-23T04:32:46.367Z,4.67
2023-04-23T04:35:14.539Z,4.40
2023-04-23T04:37:43.908Z,4.23
2023-04-23T04:40:11.691Z,4.80
2023-04-23T04:42:39.220Z,5.27
2023-04-23T04:45:08.730Z,4.77
2023-04-23T04:47:36.592Z,4.73
2023-04-23T04:50:05.406Z,5.17
2023-04-23T04:52:32.499Z,5.40
2023-04-23T04:54:59.376Z,5.37
2023-04-23T04:57:26.238Z,5.40
2023-04-23T04:59:54.004Z,5.13
2023-04-23T05:02:23.495Z,5.83
2023-04-23T05:04:50.634Z,5.20
2023-04-23T05:07:17.596Z,5.50
2023-04-23T05:09:45.299Z,5.37
2023-04-23T05:12:12.395Z,5.00
2023-04-23T05:14:39.540Z,5.13
2023-04-23T05:17:07.115Z,5.53
2023-04-23T05:19:34.015Z,5.57
2023-04-23T05:22:03.176Z,5.00
2023-04-23T05:24:30.040Z,5.07
2023-04-23T05:26:57.409Z,5.47
2023-04-23T05:29:24.382Z,5.40
2023-04-23T05:31:51.934Z,5.47
2023-04-23T05:34:18.958Z,5.43
2023-04-23T05:36:45.739Z,5.87
2023-04-23T05:39:12.600Z,5.77
2023-04-23T05:41:39.439Z,5.40
2023-04-23T05:44:06.366Z,5.20
2023-04-23T05:46:33.243Z,6.20
2023-04-23T05:49:00.089Z,5.50
2023-04-23T05:51:27.411Z,6.17
2023-04-23T05:53:54.272Z,5.20
2023-04-23T05:56:21.090Z,5.87
2023-04-23T05:58:48.283Z,6.27
2023-04-23T06:01:15.465Z,5.00
2023-04-23T06:03:45.547Z,5.67
2023-04-23T06:06:12.951Z,5.40
2023-04-23T06:08:40.004Z,5.90
2023-04-23T06:11:07.810Z,6.40
2023-04-23T06:13:42.891Z,5.80
2023-04-23T06:16:10.994Z,5.67
2023-04-23T06:18:39.298Z,5.55
2023-04-23T06:21:06.752Z,5.50
2023-04-23T06:23:35.620Z,6.03
2023-04-23T06:26:04.325Z,6.60
2023-04-23T06:28:31.434Z,6.47
2023-04-23T06:30:58.504Z,7.10
2023-04-23T06:33:25.593Z,6.43
2023-04-23T06:35:52.495Z,6.78
2023-04-23T06:38:21.296Z,6.57
2023-04-23T06:40:48.208Z,6.55
2023-04-23T06:43:15.069Z,6.90
2023-04-23T06:45:41.960Z,5.90
2023-04-23T06:48:08.877Z,6.80
2023-04-23T06:50:35.936Z,6.25
2023-04-23T06:53:03.152Z,6.80
2023-04-23T06:55:30.062Z,6.75
2023-04-23T06:57:57.976Z,6.10
2023-04-23T07:00:25.169Z,6.37
2023-04-23T07:02:52.360Z,6.70
2023-04-23T07:05:19.513Z,7.00
2023-04-23T07:07:46.362Z,6.60
2023-04-23T07:10:15.050Z,6.50
2023-04-23T07:12:43.846Z,6.20
2023-04-23T07:15:11.645Z,6.17
2023-04-23T07:17:38.632Z,6.80
2023-04-23T07:20:06.682Z,5.23
2023-04-23T07:22:33.762Z,5.50
2023-04-23T07:25:01.344Z,6.50
2023-04-23T07:27:28.249Z,5.23
2023-04-23T07:29:55.844Z,5.60
2023-04-23T07:32:26.175Z,5.30
2023-04-23T07:34:53.086Z,5.70
2023-04-23T07:37:21.768Z,5.23
2023-04-23T07:39:49.198Z,5.63
2023-04-23T07:42:16.239Z,4.70
2023-04-23T07:44:43.137Z,5.10
2023-04-23T07:47:09.974Z,4.97
2023-04-23T07:49:36.821Z,4.50
2023-04-23T07:52:03.898Z,5.80
2023-04-23T07:54:30.720Z,5.80
2023-04-23T07:56:58.057Z,5.43
2023-04-23T07:59:24.973Z,5.83
2023-04-23T08:01:52.186Z,5.40
2023-04-23T08:04:19.406Z,4.97
2023-04-23T08:06:46.635Z,5.13
2023-04-23T08:09:13.509Z,4.97
2023-04-23T08:11:41.537Z,5.03
2023-04-23T08:14:08.365Z,4.73
2023-04-23T08:16:38.078Z,4.53
2023-04-23T08:19:06.556Z,4.57
2023-04-23T08:21:34.195Z,4.30
2023-04-23T08:24:03.130Z,4.60
2023-04-23T08:26:30.713Z,4.63
2023-04-23T08:28:57.677Z,4.43
2023-04-23T08:31:26.845Z,5.03
2023-04-23T08:33:54.262Z,4.30
2023-04-23T08:36:21.144Z,3.73
2023-04-23T08:38:47.947Z,4.80
2023-04-23T08:41:21.270Z,3.67
2023-04-23T08:44:00.789Z,4.40
2023-04-23T08:46:31.885Z,4.00
2023-04-23T08:49:00.823Z,3.43
2023-04-23T08:51:30.743Z,3.70
2023-04-23T08:54:01.652Z,3.13
2023-04-23T08:56:28.592Z,3.47
2023-04-23T08:58:57.192Z,3.40
2023-04-23T09:01:24.308Z,3.40
2023-04-23T09:03:52.676Z,3.53
2023-04-23T09:06:20.692Z,3.83
2023-04-23T09:08:47.671Z,3.00
2023-04-23T09:11:15.736Z,3.20
2023-04-23T09:13:42.524Z,3.23
2023-04-23T09:16:10.590Z,3.70
2023-04-23T09:18:37.933Z,3.50
2023-04-23T09:21:05.158Z,3.50
2023-04-23T09:23:32.182Z,2.70
2023-04-23T09:25:58.981Z,2.60
2023-04-23T09:28:38.482Z,2.60
2023-04-23T09:31:06.245Z,2.73
2023-04-23T09:33:36.227Z,2.83
2023-04-23T09:36:11.855Z,2.70
2023-04-23T09:38:41.240Z,2.80
2023-04-23T09:41:24.753Z,3.00
2023-04-23T09:43:55.461Z,2.87
2023-04-23T09:46:42.867Z,2.90
2023-04-23T09:49:11.445Z,3.00
2023-04-23T09:51:40.576Z,2.97
2023-04-23T09:54:15.559Z,3.20
2023-04-23T09:56:43.580Z,3.90
2023-04-23T10:02:08.124Z,2.80
2023-04-23T10:04:35.754Z,3.63
2023-04-23T10:07:17.441Z,3.30
2023-04-23T10:09:46.995Z,3.20
2023-04-23T10:14:46.042Z,3.60
2023-04-23T10:17:13.329Z,3.63
2023-04-23T10:19:43.422Z,3.50
2023-04-23T10:22:19.430Z,3.43
2023-04-23T10:24:49.606Z,3.40
2023-04-23T10:27:30.665Z,3.20
2023-04-23T10:30:06.573Z,3.30
2023-04-23T10:32:38.453Z,3.27
2023-04-23T10:35:06.665Z,4.20
2023-04-23T10:37:34.527Z,3.53
2023-04-23T10:40:14.323Z,3.47
2023-04-23T10:42:43.768Z,3.23
2023-04-23T10:47:48.274Z,3.30
2023-04-23T10:50:22.898Z,3.30
2023-04-23T10:52:54.469Z,3.43
2023-04-23T10:55:24.597Z,3.50
2023-04-23T10:58:08.452Z,3.20
2023-04-23T11:00:41.500Z,3.00
2023-04-23T11:03:39.742Z,3.03
2023-04-23T11:06:15.737Z,2.73
2023-04-23T11:08:56.656Z,2.47
2023-04-23T11:11:40.314Z,2.77
2023-04-23T11:14:16.293Z,2.93
2023-04-23T11:16:43.341Z,2.70
2023-04-23T11:19:12.913Z,2.60
2023-04-23T11:21:59.681Z,2.30
2023-04-23T11:24:46.190Z,1.90
2023-04-23T11:27:17.422Z,2.17
2023-04-23T11:29:46.470Z,2.10
2023-04-23T11:32:15.938Z,2.13
2023-04-23T11:34:44.666Z,2.60
2023-04-23T11:37:15.483Z,2.33
2023-04-23T11:39:47.569Z,2.20
2023-04-23T11:42:15.688Z,2.30
2023-04-23T11:44:44.491Z,2.30
2023-04-23T11:47:14.196Z,2.40
2023-04-23T11:49:44.047Z,1.90
2023-04-23T11:52:11.981Z,2.27
2023-04-23T11:54:41.041Z,2.17
2023-04-23T11:57:08.496Z,2.00
2023-04-23T11:59:35.444Z,2.30
2023-04-23T12:02:02.283Z,2.30
2023-04-23T12:04:30.595Z,2.23
2023-04-23T12:06:59.158Z,2.97
2023-04-23T12:09:28.424Z,2.60
2023-04-23T12:11:58.333Z,2.37
2023-04-23T12:14:30.799Z,2.43
2023-04-23T12:17:08.713Z,2.40
2023-04-23T12:19:35.697Z,2.00
2023-04-23T12:22:04.293Z,2.47
2023-04-23T12:24:54.457Z,2.27
2023-04-23T12:27:22.807Z,1.93
2023-04-23T12:29:59.109Z,2.20
2023-04-23T12:32:27.068Z,2.30
2023-04-23T12:34:57.984Z,2.20
2023-04-23T12:37:29.849Z,2.10
2023-04-23T12:39:59.327Z,2.20
2023-04-23T12:42:26.225Z,2.30
2023-04-23T12:44:55.717Z,2.10
2023-04-23T12:47:22.802Z,2.37
2023-04-23T12:49:53.520Z,2.17
2023-04-23T12:52:20.948Z,2.40
2023-04-23T12:54:52.135Z,2.00
2023-04-23T12:57:23.121Z,2.13
2023-04-23T12:59:50.329Z,1.90
2023-04-23T13:02:17.296Z,2.20
2023-04-23T13:04:44.195Z,2.17
2023-04-23T13:07:11.026Z,1.70
2023-04-23T13:09:37.814Z,2.33
2023-04-23T13:12:04.807Z,2.30
2023-04-23T13:14:32.380Z,2.47
2023-04-23T13:16:59.336Z,1.90
2023-04-23T13:19:26.467Z,2.57
2023-04-23T13:21:53.760Z,2.50
2023-04-23T13:24:20.792Z,3.10
2023-04-23T13:26:47.602Z,2.30
2023-04-23T13:29:14.484Z,2.77
2023-04-23T13:31:41.353Z,2.43
2023-04-23T13:34:08.262Z,2.30
2023-04-23T13:36:35.197Z,3.00
2023-04-23T13:39:02.106Z,2.57
2023-04-23T13:41:29.521Z,2.80
2023-04-23T13:43:56.393Z,2.90
2023-04-23T13:46:23.250Z,3.20
2023-04-23T13:48:50.210Z,3.50
2023-04-23T13:51:33.353Z,3.43
2023-04-23T13:54:01.724Z,3.20
2023-04-23T13:56:30.474Z,3.20
2023-04-23T13:59:18.246Z,3.30
2023-04-23T14:01:48.473Z,3.67
2023-04-23T14:04:15.932Z,3.43
2023-04-23T14:06:43.189Z,3.27
2023-04-23T14:09:10.656Z,3.53
2023-04-23T14:11:39.603Z,3.50
2023-04-23T14:14:07.583Z,4.03
2023-04-23T14:16:35.460Z,3.90
2023-04-23T14:19:02.591Z,4.50
2023-04-23T14:21:29.587Z,3.87
2023-04-23T14:24:00.954Z,4.30
2023-04-23T14:29:51.032Z,3.67
2023-04-23T14:32:18.085Z,4.03
2023-04-23T14:34:45.125Z,3.30
2023-04-23T14:37:12.387Z,3.80
2023-04-23T14:39:41.448Z,3.80
2023-04-23T14:42:08.699Z,4.10
2023-04-23T14:44:35.635Z,3.83
2023-04-23T14:47:02.594Z,4.07
2023-04-23T14:49:29.601Z,3.70
2023-04-23T14:51:58.002Z,3.20
2023-04-23T14:54:25.513Z,3.30
2023-04-23T14:56:52.688Z,3.60
2023-04-23T14:59:19.553Z,3.40
2023-04-23T15:01:46.672Z,3.47
2023-04-23T15:04:13.939Z,2.70
2023-04-23T15:06:41.033Z,3.13
2023-04-23T15:09:07.978Z,3.70
2023-04-23T15:11:34.987Z,4.10
2023-04-23T15:14:03.891Z,3.50
2023-04-23T15:19:11.918Z,3.70
2023-04-23T15:21:39.196Z,4.10
2023-04-23T15:24:07.851Z,4.03
2023-04-23T15:26:34.939Z,4.20
2023-04-23T15:29:01.871Z,3.50
2023-04-23T15:31:28.828Z,3.80
2023-04-23T15:33:56.222Z,3.40
2023-04-23T15:36:23.073Z,3.63
2023-04-23T15:38:49.858Z,3.47
2023-04-23T15:41:16.793Z,3.27
2023-04-23T15:43:43.568Z,3.40
2023-04-23T15:46:10.698Z,3.43
2023-04-23T15:48:37.576Z,3.60
2023-04-23T15:51:04.734Z,3.43
2023-04-23T15:53:31.643Z,3.63
2023-04-23T15:55:58.930Z,3.70
2023-04-23T15:58:25.818Z,3.60
2023-04-23T16:00:52.809Z,3.37
2023-04-23T16:03:19.752Z,4.00
2023-04-23T16:05:48.392Z,3.83
2023-04-23T16:08:16.858Z,4.63
2023-04-23T16:10:43.887Z,4.13
2023-04-23T16:13:11.052Z,4.07
2023-04-23T16:15:37.969Z,3.83
2023-04-23T16:18:06.341Z,3.43
2023-04-23T16:20:33.470Z,3.40
2023-04-23T16:23:01.506Z,3.93
2023-04-23T16:25:28.357Z,4.00
2023-04-23T16:27:56.388Z,4.10
2023-04-23T16:30:23.779Z,4.27
2023-04-23T16:32:50.781Z,3.90
2023-04-23T16:35:17.586Z,4.00
2023-04-23T16:37:44.440Z,4.20
2023-04-23T16:40:12.101Z,4.53
2023-04-23T16:42:39.207Z,4.30
2023-04-23T16:45:06.273Z,4.80
2023-04-23T16:47:33.514Z,5.40
2023-04-23T16:50:00.501Z,4.43
2023-04-23T16:52:27.317Z,5.43
2023-04-23T16:54:54.263Z,5.20
2023-04-23T16:57:21.152Z,4.90
2023-04-23T16:59:47.904Z,4.97
2023-04-23T17:02:14.797Z,5.30
2023-04-23T17:04:41.871Z,5.20
2023-04-23T17:07:09.010Z,4.90
2023-04-23T17:09:35.881Z,5.33
2023-04-23T17:12:02.757Z,8.13
2023-04-23T17:14:29.530Z,7.90
2023-04-23T17:16:56.401Z,5.10
2023-04-23T17:19:23.265Z,5.40
2023-04-23T17:21:50.382Z,4.77
2023-04-23T17:24:17.483Z,4.73
2023-04-23T17:26:44.330Z,4.47
2023-04-23T17:29:11.575Z,4.33
2023-04-23T17:31:38.681Z,4.60
2023-04-23T17:34:05.642Z,4.60
2023-04-23T17:36:33.031Z,4.23
2023-04-23T17:38:59.992Z,4.87
2023-04-23T17:41:26.976Z,4.23
2023-04-23T17:43:53.810Z,4.20
2023-04-23T17:46:20.864Z,4.27
2023-04-23T17:48:48.287Z,4.30
2023-04-23T17:51:15.293Z,4.00
2023-04-23T17:53:42.516Z,4.07
2023-04-23T17:56:10.194Z,4.47
2023-04-23T17:58:38.371Z,4.27
2023-04-23T18:01:07.173Z,3.83
2023-04-23T18:03:34.276Z,3.90
2023-04-23T18:06:01.477Z,4.73
2023-04-23T18:08:28.439Z,4.40
2023-04-23T18:10:55.458Z,4.60
2023-04-23T18:13:22.425Z,5.17
2023-04-23T18:15:49.720Z,4.33
2023-04-23T18:18:17.802Z,4.80
2023-04-23T18:20:46.177Z,4.77
2023-04-23T18:23:14.316Z,4.10
2023-04-23T18:25:42.049Z,4.90
2023-04-23T18:28:09.109Z,4.83
2023-04-23T18:30:38.087Z,4.90
2023-04-23T18:33:20.630Z,4.83
2023-04-23T18:35:48.423Z,5.73
2023-04-23T18:38:31.766Z,5.10
2023-04-23T18:41:02.713Z,5.30
2023-04-23T18:43:29.705Z,5.80
2023-04-23T18:45:56.951Z,6.10
2023-04-23T18:48:41.516Z,5.73
2023-04-23T18:51:42.801Z,5.27
2023-04-23T18:54:09.776Z,3.80
2023-04-23T18:56:36.757Z,2.40
2023-04-23T18:59:03.670Z,1.60
2023-04-23T19:01:30.583Z,1.80
2023-04-23T19:03:57.695Z,1.70
2023-04-23T19:06:24.853Z,2.47
2023-04-23T19:08:51.822Z,2.70
2023-04-23T19:11:18.754Z,2.70
2023-04-23T19:13:45.732Z,2.20
2023-04-23T19:16:12.695Z,1.97
2023-04-23T19:18:39.722Z,2.27
2023-04-23T19:21:06.983Z,1.80
2023-04-23T19:23:33.848Z,2.37
2023-04-23T19:26:01.805Z,2.73
2023-04-23T19:28:28.846Z,2.63
2023-04-23T19:30:55.855Z,2.63
2023-04-23T19:33:23.177Z,2.43
2023-04-23T19:35:50.149Z,2.60
2023-04-23T19:38:16.947Z,2.30
2023-04-23T19:40:43.822Z,3.00
2023-04-23T19:43:12.781Z,2.80
2023-04-23T19:45:39.789Z,2.50
2023-04-23T19:48:08.201Z,2.63
2023-04-23T19:50:35.811Z,3.23
2023-04-23T19:53:04.647Z,3.20
2023-04-23T19:55:31.566Z,2.57
2023-04-23T19:57:58.695Z,4.10
2023-04-23T20:00:29.912Z,4.28
2023-04-23T20:02:57.675Z,4.47
2023-04-23T20:05:25.025Z,4.30
2023-04-23T20:07:52.612Z,4.10
2023-04-23T20:10:19.535Z,3.97
2023-04-23T20:12:46.398Z,3.13
2023-04-23T20:15:13.833Z,3.67
2023-04-23T20:17:40.872Z,3.35
2023-04-23T20:20:09.498Z,3.47
2023-04-23T20:22:36.388Z,2.95
2023-04-23T20:25:03.560Z,2.70
2023-04-23T20:27:30.585Z,3.43
2023-04-23T20:29:57.516Z,3.33
2023-04-23T20:32:24.318Z,2.90
2023-04-23T20:34:52.633Z,3.20
2023-04-23T20:37:22.435Z,3.07
2023-04-23T20:39:50.037Z,3.07
2023-04-23T20:42:16.925Z,2.97
2023-04-23T20:44:45.644Z,2.80
2023-04-23T20:47:13.346Z,2.70
2023-04-23T20:49:40.436Z,3.33
2023-04-23T20:52:07.646Z,2.83
2023-04-23T20:54:36.109Z,2.73
2023-04-23T20:57:03.939Z,2.42
2023-04-23T20:59:31.081Z,2.60
2023-04-23T21:01:58.037Z,2.75
2023-04-23T21:04:25.194Z,2.67
2023-04-23T21:06:52.120Z,2.67
2023-04-23T21:09:19.004Z,2.90
2023-04-23T21:11:45.877Z,2.55
2023-04-23T21:14:12.645Z,2.73
2023-04-23T21:16:39.517Z,2.60
2023-04-23T21:19:06.578Z,3.20
2023-04-23T21:21:33.501Z,3.10
2023-04-23T21:24:00.974Z,2.30
2023-04-23T21:26:30.031Z,2.87
2023-04-23T21:28:56.966Z,2.60
2023-04-23T21:31:42.006Z,2.57
2023-04-23T21:34:09.361Z,2.53
2023-04-23T21:36:36.308Z,2.00
2023-04-23T21:39:03.462Z,2.10
2023-04-23T21:41:30.876Z,2.55
2023-04-23T21:43:57.704Z,1.98
2023-04-23T21:46:25.101Z,2.00
2023-04-23T21:48:53.639Z,2.30
2023-04-23T21:51:22.427Z,2.13
2023-04-23T21:53:49.494Z,2.38
2023-04-23T21:56:16.734Z,2.28
2023-04-23T21:58:44.398Z,2.53
2023-04-23T22:01:11.451Z,2.35
2023-04-23T22:03:42.351Z,2.20
2023-04-23T22:06:09.835Z,2.60
2023-04-23T22:08:40.370Z,2.33
2023-04-23T22:11:08.396Z,2.10
2023-04-23T22:13:36.359Z,1.90
2023-04-23T22:16:06.595Z,2.05
2023-04-23T22:18:38.353Z,2.03
2023-04-23T22:21:05.332Z,2.30
2023-04-23T22:23:32.236Z,2.00
2023-04-23T22:25:59.145Z,2.17
2023-04-23T22:28:25.951Z,2.10
2023-04-23T22:30:52.775Z,2.00
2023-04-23T22:33:19.630Z,2.07
2023-04-23T22:35:46.489Z,2.10
2023-04-23T22:38:13.448Z,2.65
2023-04-23T22:40:40.358Z,2.50
2023-04-23T22:43:07.143Z,2.00
2023-04-23T22:45:34.361Z,2.00
2023-04-23T22:48:01.219Z,2.20
2023-04-23T22:50:28.990Z,2.17
2023-04-23T22:52:56.188Z,2.30
2023-04-23T22:55:23.099Z,2.13
2023-04-23T22:57:49.999Z,1.80
2023-04-23T23:00:16.974Z,2.03
2023-04-23T23:02:43.846Z,1.70
2023-04-23T23:05:11.101Z,1.90
2023-04-23T23:07:38.584Z,2.10
2023-04-23T23:10:08.767Z,1.63
2023-04-23T23:12:36.589Z,1.85
2023-04-23T23:15:04.112Z,1.40
2023-04-23T23:17:31.001Z,1.65
2023-04-23T23:19:57.845Z,1.35
2023-04-23T23:22:24.800Z,1.83
2023-04-23T23:24:51.666Z,1.85
2023-04-23T23:27:18.490Z,1.33
2023-04-23T23:29:45.604Z,1.50
2023-04-23T23:32:12.498Z,1.60
2023-04-23T23:34:39.558Z,1.70
2023-04-23T23:37:06.844Z,1.50
2023-04-23T23:39:33.639Z,1.40
2023-04-23T23:42:01.926Z,1.50
2023-04-23T23:44:28.862Z,1.60
2023-04-23T23:46:56.374Z,1.50
2023-04-23T23:49:23.311Z,1.20
2023-04-23T23:51:50.807Z,1.70
2023-04-23T23:54:17.601Z,1.40
2023-04-23T23:56:44.446Z,1.42
2023-04-23T23:59:11.580Z,1.30
